Time;durP1;ratioP1;P1;durP2;ratioP2;P2;SDS_P1;SDS_P2;PMS_P1;PMS_P2;Temp;Humidity;BMP_temperature;BMP_pressure;BME280_temperature;BME280_humidity;BME280_pressure;Samples;Min_cycle;Max_cycle;Signal;HPM_P1;HPM_P2
2023/11/14 00:02:09;;;;;;;;;2.00;0.00;;;;;13.79;74.05;101263.53;146620;615;46040;-72
2023/11/14 00:05:20;;;;;;;;;0.33;0.33;;;;;11.62;73.37;100895.72;146617;569;46017;-71
2023/11/14 00:08:15;;;;;;;;;0.00;0.00;;;;;13.76;74.64;101266.00;146623;616;47010;-70
2023/11/14 00:11:36;;;;;;;;;0.00;0.00;;;;;12.09;73.41;100958.66;146615;576;47015;-72
2023/11/14 00:14:49;;;;;;;;;2.00;0.00;;;;;11.92;73.74;100932.72;146615;634;46020;-71
2023/11/14 00:17:46;;;;;;;;;0.00;0.00;;;;;13.82;74.55;101264.56;146618;580;46016;-70
2023/11/14 00:20:40;;;;;;;;;0.00;0.00;;;;;13.83;74.88;101262.84;146621;587;46010;-72
2023/11/14 00:23:51;;;;;;;;;0.00;0.00;;;;;13.85;74.75;101261.22;146615;575;46016;-79
2023/11/14 00:26:46;;;;;;;;;2.33;0.00;;;;;13.88;74.44;101265.69;146618;626;48010;-79
2023/11/14 00:29:38;;;;;;;;;1.00;0.00;;;;;13.96;74.26;101267.81;146615;565;46012;-79
2023/11/14 00:32:46;;;;;;;;;;;;;;;;;;;;;
2023/11/14 00:35:50;;;;;;;;;0.00;0.00;;;;;14.04;74.31;101253.41;146618;601;46914;-78
2023/11/14 00:38:47;;;;;;;;;0.00;0.00;;;;;14.06;73.94;101253.50;146618;653;47020;-78
2023/11/14 00:42:03;;;;;;;;;0.00;0.00;;;;;14.13;74.68;101275.53;146620;570;46013;-78
2023/11/14 00:45:27;;;;;;;;;;;;;;;;;;;;;
2023/11/14 00:48:26;;;;;;;;;0.00;0.00;;;;;14.20;73.40;101272.34;146618;585;47012;-78
2023/11/14 00:51:21;;;;;;;;;1.67;1.67;;;;;14.22;74.13;101273.34;146621;618;47010;-77
2023/11/14 00:54:33;;;;;;;;;1.00;1.00;;;;;14.23;73.22;101265.56;146610;595;48012;-78
2023/11/14 00:57:36;;;;;;;;;2.00;2.00;;;;;14.23;73.38;101264.66;146619;590;46021;-74
2023/11/14 01:00:41;;;;;;;;;4.67;2.00;;;;;12.35;72.71;100946.91;146617;585;47012;-75
2023/11/14 01:03:43;;;;;;;;;3.00;1.25;;;;;14.18;73.60;101277.53;146624;603;45020;-72
2023/11/14 01:06:39;;;;;;;;;3.75;2.25;;;;;14.13;74.57;101276.41;146619;632;46016;-72
2023/11/14 01:09:31;;;;;;;;;3.00;3.00;;;;;14.01;74.44;101275.84;146622;670;46010;-71
2023/11/14 01:12:27;;;;;;;;;0.00;0.00;;;;;13.88;74.91;101279.59;146613;577;47016;-73
2023/11/14 01:15:26;;;;;;;;;1.00;1.00;;;;;13.82;75.23;101275.00;146620;584;47049;-73
2023/11/14 01:18:25;;;;;;;;;1.00;1.00;;;;;13.78;75.14;101277.41;146618;611;46012;-72
2023/11/14 01:21:32;;;;;;;;;3.33;1.00;;;;;13.77;75.75;101280.81;146623;639;47010;-74
2023/11/14 01:24:31;;;;;;;;;0.00;0.00;;;;;13.76;75.39;101277.31;146617;564;47015;-71
2023/11/14 01:27:28;;;;;;;;;0.00;0.00;;;;;13.75;75.64;101274.66;146617;564;46021;-71
2023/11/14 01:30:29;;;;;;;;;0.00;0.00;;;;;13.77;75.86;101276.50;146615;607;46016;-71
2023/11/14 01:33:34;;;;;;;;;2.00;1.00;;;;;13.78;76.17;101273.06;146622;571;47011;-70
2023/11/14 01:36:38;;;;;;;;;1.00;1.00;;;;;13.83;76.07;101271.59;146617;570;47012;-71
2023/11/14 01:39:45;;;;;;;;;0.00;0.00;;;;;13.86;75.77;101261.31;146623;574;46010;-70
2023/11/14 01:42:42;;;;;;;;;0.67;0.67;;;;;13.89;76.02;101262.25;146620;700;46016;-71
2023/11/14 01:45:34;;;;;;;;;0.00;0.00;;;;;13.93;75.48;101261.59;146619;579;47020;-71
2023/11/14 01:48:41;;;;;;;;;0.00;0.00;;;;;13.94;75.74;101264.25;146618;671;46016;-77
2023/11/14 01:51:47;;;;;;;;;;;;;;;;;;;;;
2023/11/14 01:54:54;;;;;;;;;5.50;5.00;;;;;13.76;75.08;101269.47;146616;564;46014;-75
2023/11/14 01:57:53;;;;;;;;;5.25;4.00;;;;;13.70;75.07;101263.97;146619;563;46020;-75
2023/11/14 02:00:47;;;;;;;;;2.00;1.00;;;;;13.68;75.49;101277.78;146616;654;47016;-74
2023/11/14 02:03:40;;;;;;;;;0.00;0.00;;;;;13.65;75.49;101267.22;146621;574;46020;-75
2023/11/14 02:06:54;;;;;;;;;0.00;0.00;;;;;11.76;74.24;100941.44;146617;628;47012;-74
2023/11/14 02:09:46;;;;;;;;;3.33;2.33;;;;;13.59;75.34;101266.09;146620;583;46022;-76
2023/11/14 02:12:54;;;;;;;;;1.00;1.00;;;;;13.61;75.81;101263.53;146619;622;46028;-76
2023/11/14 02:16:12;;;;;;;;;0.00;0.00;;;;;12.09;74.98;100995.06;146618;601;46021;-75
2023/11/14 02:19:20;;;;;;;;;1.00;0.75;;;;;13.66;76.27;101264.66;146617;632;46012;-76
2023/11/14 02:22:45;;;;;;;;;1.00;1.00;;;;;13.68;74.64;101263.03;146622;643;46020;-77
2023/11/14 02:25:40;;;;;;;;;2.33;2.33;;;;;13.65;75.30;101262.91;146617;641;47014;-80
2023/11/14 02:28:55;;;;;;;;;;;;;;;;;;;;;
2023/11/14 02:32:01;;;;;;;;;2.50;2.50;;;;;13.54;75.57;101264.09;146612;587;48022;-73
2023/11/14 02:35:05;;;;;;;;;3.50;3.00;;;;;13.50;75.27;101268.25;146619;686;47010;-75
2023/11/14 02:38:00;;;;;;;;;3.00;2.25;;;;;13.46;76.01;101279.38;146616;584;46013;-75
2023/11/14 02:41:03;;;;;;;;;3.00;3.00;;;;;13.43;75.54;101278.28;146620;687;46010;-73
2023/11/14 02:43:56;;;;;;;;;5.00;4.00;;;;;13.40;76.45;101292.09;146619;575;46012;-75
2023/11/14 02:46:57;;;;;;;;;3.00;2.33;;;;;13.33;76.97;101288.31;146617;629;46021;-74
2023/11/14 02:50:52;;;;;;;;;2.00;2.00;;;;;11.46;75.72;100971.03;146622;625;46012;-75
2023/11/14 02:53:53;;;;;;;;;3.00;3.00;;;;;13.16;77.46;101283.91;146626;593;46011;-73
2023/11/14 02:57:09;;;;;;;;;4.50;3.50;;;;;13.13;77.76;101283.78;146616;579;46016;-72
2023/11/14 03:00:01;;;;;;;;;2.25;1.75;;;;;13.14;78.97;101282.94;146616;655;46020;-72
2023/11/14 03:03:02;;;;;;;;;0.33;0.33;;;;;13.14;78.53;101291.63;146616;622;46017;-74
2023/11/14 03:06:00;;;;;;;;;1.00;1.00;;;;;13.14;79.02;101286.44;146620;586;46010;-73
2023/11/14 03:09:07;;;;;;;;;1.00;1.00;;;;;13.16;78.73;101286.53;146614;686;47016;-71
2023/11/14 03:12:05;;;;;;;;;1.00;1.00;;;;;13.15;79.03;101285.63;146622;683;46014;-71
2023/11/14 03:15:03;;;;;;;;;4.33;1.67;;;;;13.15;78.86;101280.44;146616;612;46016;-71
2023/11/14 03:18:01;;;;;;;;;1.33;1.33;;;;;13.16;78.93;101284.81;146620;572;46021;-70
2023/11/14 03:20:57;;;;;;;;;3.33;2.33;;;;;13.19;79.17;101286.69;146620;638;46016;-71
2023/11/14 03:23:49;;;;;;;;;1.33;0.00;;;;;13.17;79.51;101275.28;146620;575;46021;-72
2023/11/14 03:26:45;;;;;;;;;2.00;2.00;;;;;13.16;79.10;101281.31;146617;579;46016;-70
2023/11/14 03:30:01;;;;;;;;;1.00;1.00;;;;;11.62;77.97;101009.09;146619;564;46020;-70
2023/11/14 03:33:02;;;;;;;;;1.00;0.25;;;;;13.16;79.31;101274.41;146614;566;46017;-72
2023/11/14 03:36:05;;;;;;;;;0.75;0.75;;;;;12.13;77.83;101104.44;146622;607;46010;-72
2023/11/14 03:39:00;;;;;;;;;3.67;1.67;;;;;13.20;79.03;101280.66;146617;640;47915;-75
2023/11/14 03:42:00;;;;;;;;;0.67;0.67;;;;;13.16;78.80;101278.72;146618;570;47010;-73
2023/11/14 03:44:58;;;;;;;;;3.00;1.00;;;;;13.12;78.54;101276.78;146622;650;46012;-73
2023/11/14 03:48:03;;;;;;;;;2.00;1.00;;;;;11.89;77.62;101067.69;146617;593;46020;-73
2023/11/14 03:51:09;;;;;;;;;3.00;1.67;;;;;13.04;77.99;101276.38;146617;624;46016;-73
2023/11/14 03:54:12;;;;;;;;;3.00;2.67;;;;;13.04;78.31;101275.50;146618;659;46021;-76
2023/11/14 03:57:14;;;;;;;;;1.33;1.00;;;;;13.02;78.41;101277.13;146619;672;45915;-71
2023/11/14 04:00:36;;;;;;;;;0.00;0.00;;;;;13.02;77.82;101272.84;146623;569;46010;-72
2023/11/14 04:03:46;;;;;;;;;1.00;1.00;;;;;13.05;78.45;101273.00;146616;630;46041;-72
2023/11/14 04:06:44;;;;;;;;;0.00;0.00;;;;;13.08;78.56;101277.44;146623;653;47010;-76
2023/11/14 04:09:40;;;;;;;;;1.33;0.33;;;;;13.10;78.52;101271.47;146617;650;46016;-77
2023/11/14 04:12:35;;;;;;;;;4.67;3.33;;;;;13.13;78.27;101270.75;146620;573;46020;-76
2023/11/14 04:15:45;;;;;;;;;2.33;2.33;;;;;13.13;77.56;101278.56;146617;570;46017;-72
2023/11/14 04:18:53;;;;;;;;;3.00;3.00;;;;;13.12;77.65;101279.38;146615;651;46036;-72
2023/11/14 04:21:50;;;;;;;;;8.00;4.75;;;;;13.09;77.84;101281.84;146616;594;46028;-73
2023/11/14 04:24:58;;;;;;;;;3.25;3.00;;;;;13.04;77.78;101281.59;146617;564;46040;-72
2023/11/14 04:27:51;;;;;;;;;5.75;4.00;;;;;12.98;79.05;101280.41;146614;593;46033;-77
2023/11/14 04:30:49;;;;;;;;;3.00;2.00;;;;;12.93;78.56;101272.38;146621;643;46021;-75
2023/11/14 04:34:24;;;;;;;;;3.25;3.25;;;;;12.89;78.66;101281.72;146617;676;46014;-76
2023/11/14 04:37:30;;;;;;;;;6.50;5.50;;;;;12.88;78.86;101299.88;146621;720;47021;-75
2023/11/14 04:40:31;;;;;;;;;5.75;4.50;;;;;12.87;79.08;101292.88;146615;619;46913;-77
2023/11/14 04:43:24;;;;;;;;;3.25;3.25;;;;;12.85;78.81;101299.72;146615;624;49010;-77
2023/11/14 04:46:32;;;;;;;;;4.00;4.00;;;;;12.84;78.71;101308.34;146613;669;46017;-76
2023/11/14 04:49:48;;;;;;;;;5.50;4.25;;;;;12.79;78.54;101307.19;146621;581;46020;-73
2023/11/14 04:52:59;;;;;;;;;8.25;6.00;;;;;10.79;77.63;100958.03;146617;677;46915;-74
2023/11/14 04:55:57;;;;;;;;;5.25;4.00;;;;;12.70;78.99;101297.22;146619;584;46020;-75
2023/11/14 04:59:15;;;;;;;;;6.50;5.50;;;;;12.75;78.99;101302.66;146617;592;47017;-73
2023/11/14 05:02:11;;;;;;;;;5.50;5.00;;;;;12.78;79.35;101311.50;146619;686;46021;-73
2023/11/14 05:05:08;;;;;;;;;4.00;4.00;;;;;12.79;79.49;101322.81;146615;645;46016;-75
2023/11/14 05:08:07;;;;;;;;;3.00;3.00;;;;;12.77;79.41;101324.44;146621;575;46020;-78
2023/11/14 05:11:02;;;;;;;;;4.00;4.00;;;;;12.71;80.04;101325.91;146618;640;46012;-78
2023/11/14 05:13:58;;;;;;;;;6.00;5.00;;;;;12.65;79.92;101327.31;146620;572;46036;-72
2023/11/14 05:17:03;;;;;;;;;6.50;4.25;;;;;12.70;79.93;101336.22;146611;618;47915;-71
2023/11/14 05:20:05;;;;;;;;;4.00;3.00;;;;;12.76;80.49;101333.94;146619;563;46014;-71
2023/11/14 05:23:17;;;;;;;;;6.00;3.50;;;;;12.79;79.95;101326.31;146616;566;46916;-71
2023/11/14 05:26:34;;;;;;;;;10.00;9.25;;;;;12.80;80.01;101319.38;146621;655;46020;-72
2023/11/14 05:29:29;;;;;;;;;7.50;6.75;;;;;12.84;80.28;101318.75;146611;573;47017;-71
2023/11/14 05:32:33;;;;;;;;;4.00;4.00;;;;;12.88;79.67;101315.47;146620;599;47010;-72
2023/11/14 05:35:38;;;;;;;;;4.75;4.50;;;;;12.90;79.38;101319.06;146616;586;46012;-72
2023/11/14 05:38:30;;;;;;;;;5.75;3.50;;;;;12.95;80.16;101328.87;146619;563;46020;-72
2023/11/14 05:41:40;;;;;;;;;;;;;;;;;;;;;
2023/11/14 05:44:49;;;;;;;;;3.50;3.00;;;;;11.25;79.64;101018.47;146620;616;47010;-72
2023/11/14 05:47:53;;;;;;;;;3.75;3.75;;;;;13.31;81.17;101331.59;146615;579;46913;-71
2023/11/14 05:51:10;;;;;;;;;4.75;4.50;;;;;12.38;84.05;101018.16;146618;649;47020;-71
2023/11/14 05:54:09;;;;;;;;;3.00;3.00;;;;;14.98;83.13;101336.78;146617;589;46016;-72
2023/11/14 05:57:11;;;;;;;;;3.00;2.00;;;;;15.52;79.20;101333.81;146618;636;46020;-72
2023/11/14 06:00:19;;;;;;;;;2.00;2.00;;;;;15.90;76.93;101324.00;146614;691;46017;-71
2023/11/14 06:03:12;;;;;;;;;3.33;2.33;;;;;16.32;75.49;101321.25;146622;599;46020;-71
2023/11/14 06:06:13;;;;;;;;;2.00;2.00;;;;;16.79;76.32;101324.72;146616;653;48002;-73
2023/11/14 06:09:25;;;;;;;;;4.00;1.33;;;;;17.68;74.10;101330.34;146622;581;46020;-71
2023/11/14 06:12:17;;;;;;;;;3.00;2.00;;;;;18.82;68.89;101332.06;146621;614;46913;-72
2023/11/14 06:15:21;;;;;;;;;2.67;2.00;;;;;19.88;64.90;101338.25;146621;643;46021;-73
2023/11/14 06:18:14;;;;;;;;;5.00;4.33;;;;;20.87;61.34;101342.13;146617;571;46016;-72
2023/11/14 06:21:19;;;;;;;;;12.67;9.67;;;;;20.16;58.80;101073.84;146621;684;47010;-69
2023/11/14 06:24:16;;;;;;;;;10.75;10.75;;;;;22.53;54.89;101350.03;146619;703;46016;-70
2023/11/14 06:27:29;;;;;;;;;15.75;14.50;;;;;22.40;54.84;101214.25;146615;574;46020;-73
2023/11/14 06:30:29;;;;;;;;;17.67;14.00;;;;;23.71;50.67;101354.78;146608;619;46016;-73
2023/11/14 06:33:32;;;;;;;;;19.75;19.00;;;;;23.85;50.03;101354.88;146613;681;47020;-73
2023/11/14 06:36:25;;;;;;;;;12.67;12.00;;;;;23.61;48.38;101362.59;146613;564;46016;-72
2023/11/14 06:39:23;;;;;;;;;11.00;10.00;;;;;23.19;48.88;101374.59;146616;648;46010;-72
2023/11/14 06:42:16;;;;;;;;;10.67;10.67;;;;;22.62;48.75;101373.03;146611;669;46016;-72
2023/11/14 06:45:25;;;;;;;;;9.33;9.33;;;;;21.91;52.00;101377.34;146613;670;47020;-70
2023/11/14 06:48:29;;;;;;;;;10.75;9.75;;;;;21.28;51.98;101375.34;146616;579;46012;-71
2023/11/14 06:51:23;;;;;;;;;9.00;8.00;;;;;20.71;54.22;101369.91;146613;590;46021;-71
2023/11/14 06:54:33;;;;;;;;;;;;;;;;;;;;;
2023/11/14 06:57:34;;;;;;;;;13.50;10.75;;;;;19.89;57.62;101363.72;146611;580;47020;-71
2023/11/14 07:00:42;;;;;;;;;12.25;11.25;;;;;19.62;58.65;101374.44;146608;645;47016;-74
2023/11/14 07:03:43;;;;;;;;;13.00;12.25;;;;;19.42;60.42;101371.31;146614;674;46010;-73
2023/11/14 07:07:04;;;;;;;;;;;;;;;;;;;;;
2023/11/14 07:10:04;;;;;;;;;14.25;14.00;;;;;19.21;61.20;101366.38;146612;658;47010;-73
2023/11/14 07:12:58;;;;;;;;;16.00;13.75;;;;;19.10;62.06;101366.09;146607;575;46016;-73
2023/11/14 07:15:58;;;;;;;;;21.25;18.75;;;;;19.08;62.20;101370.44;146615;565;45020;-76
2023/11/14 07:18:57;;;;;;;;;18.25;14.00;;;;;19.11;62.07;101354.72;146609;578;46016;-77
2023/11/14 07:22:01;;;;;;;;;17.75;17.25;;;;;19.07;62.39;101349.38;146612;608;46020;-76
2023/11/14 07:24:56;;;;;;;;;16.50;15.25;;;;;19.04;63.43;101351.91;146610;564;47012;-78
2023/11/14 07:27:58;;;;;;;;;31.00;29.50;;;;;19.11;64.89;101354.72;146612;651;46020;-77
2023/11/14 07:31:10;;;;;;;;;;;;;;;;;;;;;
2023/11/14 07:34:06;;;;;;;;;16.75;14.75;;;;;19.47;62.97;101347.75;146615;596;46021;-77
2023/11/14 07:37:03;;;;;;;;;18.50;16.75;;;;;19.57;62.04;101336.62;146611;640;46017;-77
2023/11/14 07:39:55;;;;;;;;;18.25;16.25;;;;;19.61;62.77;101341.97;146611;585;47010;-76
2023/11/14 07:42:53;;;;;;;;;15.75;15.25;;;;;19.68;62.82;101352.69;146609;586;46916;-75
2023/11/14 07:46:05;;;;;;;;;16.00;12.00;;;;;19.78;63.23;101347.69;146613;576;46010;-79
2023/11/14 07:49:02;;;;;;;;;11.67;9.33;;;;;19.89;62.78;101349.66;146609;576;46016;-72
2023/11/14 07:52:12;;;;;;;;;6.33;4.00;;;;;20.05;63.16;101346.53;146619;623;46010;-73
2023/11/14 07:55:13;;;;;;;;;7.00;5.67;;;;;20.20;62.05;101336.34;146617;565;46016;-73
2023/11/14 07:58:25;;;;;;;;;8.00;8.00;;;;;20.36;61.31;101337.53;146619;630;46014;-72
2023/11/14 08:01:29;;;;;;;;;12.75;12.00;;;;;20.47;60.66;101340.41;146615;595;45581;-72
2023/11/14 08:04:31;;;;;;;;;10.00;9.67;;;;;20.54;61.43;101329.19;146615;605;46011;-75
2023/11/14 08:07:38;;;;;;;;;10.33;7.67;;;;;20.68;60.42;101332.06;146619;563;46916;-72
2023/11/14 08:10:33;;;;;;;;;9.00;8.33;;;;;20.87;59.54;101330.66;146617;600;46014;-73
2023/11/14 08:13:54;;;;;;;;;11.00;10.00;;;;;20.98;59.52;101334.41;146619;601;46013;-73
2023/11/14 08:17:17;;;;;;;;;10.75;10.75;;;;;20.99;59.40;101333.53;146614;669;47010;-73
2023/11/14 08:20:22;;;;;;;;;11.67;9.00;;;;;20.97;59.83;101324.72;146612;572;46017;-73
2023/11/14 08:23:18;;;;;;;;;9.00;8.00;;;;;21.03;58.71;101324.84;146617;616;46010;-73
2023/11/14 08:26:18;;;;;;;;;10.00;9.00;;;;;21.15;58.16;101317.16;146617;565;46913;-73
2023/11/14 08:29:29;;;;;;;;;10.00;6.33;;;;;21.28;57.79;101309.41;146620;565;46010;-73
2023/11/14 08:32:31;;;;;;;;;7.67;7.67;;;;;21.37;57.05;101310.53;146616;563;46016;-73
2023/11/14 08:35:32;;;;;;;;;9.00;5.00;;;;;21.51;57.84;101313.38;146615;679;47020;-72
2023/11/14 08:38:30;;;;;;;;;12.00;9.67;;;;;21.63;57.06;101315.31;146616;604;47016;-79
2023/11/14 08:41:31;;;;;;;;;10.00;8.00;;;;;21.72;56.80;101310.19;146621;582;46020;-74
2023/11/14 08:44:31;;;;;;;;;8.67;7.00;;;;;21.85;57.00;101313.88;146616;593;46016;-72
2023/11/14 08:47:29;;;;;;;;;9.67;8.00;;;;;22.00;54.97;101303.53;146620;582;46010;-78
2023/11/14 08:50:31;;;;;;;;;7.00;7.00;;;;;22.17;55.83;101292.34;146620;623;46013;-79
2023/11/14 08:53:32;;;;;;;;;8.00;5.00;;;;;22.34;52.33;101281.13;146608;613;47010;-78
2023/11/14 08:56:47;;;;;;;;;4.00;4.00;;;;;22.46;55.14;101287.41;146617;597;46017;-80
2023/11/14 08:59:49;;;;;;;;;8.33;7.00;;;;;22.52;54.17;101283.09;146615;579;46020;-78
2023/11/14 09:02:47;;;;;;;;;7.00;7.00;;;;;22.64;54.26;101273.50;146619;587;46012;-76
2023/11/14 09:05:51;;;;;;;;;15.67;12.00;;;;;22.74;52.95;101267.44;146620;590;46021;-75
2023/11/14 09:08:51;;;;;;;;;9.00;8.00;;;;;22.74;49.85;101267.44;146611;586;46016;-79
2023/11/14 09:11:46;;;;;;;;;11.67;10.00;;;;;22.69;52.15;101263.87;146618;625;47021;-74
2023/11/14 09:14:41;;;;;;;;;15.67;11.00;;;;;22.73;53.03;101263.03;146616;579;46012;-74
2023/11/14 09:17:48;;;;;;;;;16.33;12.33;;;;;22.88;53.61;101264.94;146617;603;47020;-78
2023/11/14 09:20:43;;;;;;;;;14.33;12.33;;;;;22.96;53.26;101256.25;146610;617;46017;-76
2023/11/14 09:23:38;;;;;;;;;13.67;10.33;;;;;23.03;52.46;101255.41;146603;587;48014;-77
2023/11/14 09:26:41;;;;;;;;;12.00;6.67;;;;;23.09;52.16;101259.00;146611;580;46012;-77
2023/11/14 09:29:52;;;;;;;;;10.00;7.33;;;;;23.15;53.91;101253.75;146620;575;46020;-77
2023/11/14 09:33:03;;;;;;;;;11.00;8.00;;;;;23.19;53.13;101267.00;146616;592;47012;-77
2023/11/14 09:36:09;;;;;;;;;12.33;9.33;;;;;23.21;51.30;101254.69;146617;611;47010;-78
2023/11/14 09:39:18;;;;;;;;;9.25;8.75;;;;;23.31;50.78;101255.62;146615;649;46016;-78
2023/11/14 09:42:15;;;;;;;;;10.00;5.67;;;;;23.38;48.89;101246.84;146618;571;46020;-77
2023/11/14 09:45:12;;;;;;;;;10.00;8.67;;;;;23.48;48.92;101248.69;146618;637;46012;-77
2023/11/14 09:48:08;;;;;;;;;8.33;7.00;;;;;23.55;47.67;101236.41;146620;688;46021;-75
2023/11/14 09:51:06;;;;;;;;;7.67;7.00;;;;;23.52;50.28;101228.44;146616;680;46016;-77
2023/11/14 09:54:05;;;;;;;;;8.67;8.00;;;;;23.51;49.60;101222.22;146622;589;46020;-76
2023/11/14 09:57:15;;;;;;;;;;;;;;;;;;;;;
2023/11/14 10:00:18;;;;;;;;;7.33;7.33;;;;;23.54;49.66;101212.56;146618;595;48020;-78
2023/11/14 10:03:22;;;;;;;;;7.00;7.00;;;;;23.60;51.17;101208.16;146621;599;46012;-78
2023/11/14 10:06:31;;;;;;;;;5.67;5.33;;;;;23.61;51.59;101198.47;146620;606;46020;-78
2023/11/14 10:09:30;;;;;;;;;8.33;5.33;;;;;23.67;49.65;101206.44;146614;668;46014;-75
2023/11/14 10:12:59;;;;;;;;;8.00;8.00;;;;;23.71;52.26;101205.63;146619;577;47014;-76
2023/11/14 10:16:36;;;;;;;;;9.00;8.00;;;;;23.74;52.15;101203.88;146614;572;49012;-87
2023/11/14 10:19:49;;;;;;;;;9.00;7.00;;;;;23.88;51.01;101201.28;146621;583;46010;-78
2023/11/14 10:23:12;;;;;;;;;7.00;6.00;;;;;23.16;53.02;101075.62;146616;588;47012;-77
2023/11/14 10:26:17;;;;;;;;;7.00;6.00;;;;;24.04;51.04;101193.41;146617;674;47023;-77
2023/11/14 10:29:12;;;;;;;;;9.33;8.67;;;;;23.87;49.94;101178.34;146617;588;46012;-78
2023/11/14 10:32:25;;;;;;;;;6.67;5.00;;;;;23.52;53.17;101163.16;146620;574;46021;-77
2023/11/14 10:35:27;;;;;;;;;4.00;3.00;;;;;23.66;51.87;101178.22;146619;655;46016;-74
2023/11/14 10:38:35;;;;;;;;;5.33;5.00;;;;;22.29;52.79;100931.47;146624;711;46010;-79
2023/11/14 10:41:32;;;;;;;;;4.67;4.67;;;;;23.53;50.96;101148.16;146617;590;46016;-78
2023/11/14 10:44:32;;;;;;;;;5.00;3.33;;;;;23.55;49.63;101141.09;146620;571;46010;-76
2023/11/14 10:47:52;;;;;;;;;3.33;3.00;;;;;23.56;52.62;101134.03;146619;672;46913;-77
2023/11/14 10:50:50;;;;;;;;;4.67;4.33;;;;;23.57;51.23;101135.81;146620;615;47020;-77
2023/11/14 10:54:02;;;;;;;;;3.33;2.67;;;;;23.54;52.17;101135.78;146615;611;47012;-79
2023/11/14 10:57:07;;;;;;;;;2.33;1.33;;;;;23.49;51.02;101143.72;146620;593;46010;-77
2023/11/14 11:00:10;;;;;;;;;5.33;3.67;;;;;23.28;51.51;101136.56;146616;564;46038;-78
2023/11/14 11:03:20;;;;;;;;;3.33;3.00;;;;;23.15;51.54;101134.72;146621;625;46020;-78
2023/11/14 11:06:25;;;;;;;;;;;;;;;;;;;;;
2023/11/14 11:09:43;;;;;;;;;5.00;4.00;;;;;21.56;55.36;100868.41;146619;580;46014;-77
2023/11/14 11:12:47;;;;;;;;;6.67;6.67;;;;;23.14;50.27;101117.06;146618;560;46016;-78
2023/11/14 11:15:57;;;;;;;;;4.67;4.00;;;;;23.15;54.06;101110.91;146621;570;46020;-77
2023/11/14 11:19:03;;;;;;;;;;;;;;;;;;;;;
2023/11/14 11:22:15;;;;;;;;;1.00;1.00;;;;;23.45;53.29;101100.44;146620;581;46021;-77
2023/11/14 11:25:58;;;;;;;;;;;;;;;;;;;;;
2023/11/14 11:29:04;;;;;;;;;3.00;2.00;;;;;22.60;51.80;100862.94;146619;563;46014;-77
2023/11/14 11:32:42;;;;;;;;;2.00;1.00;;;;;24.15;53.60;101099.81;146615;574;47914;-76
2023/11/14 11:35:41;;;;;;;;;2.00;2.00;;;;;24.35;49.58;101101.59;146620;644;46020;-77
2023/11/14 11:38:56;;;;;;;;;2.00;1.00;;;;;24.49;50.08;101094.59;146615;565;47017;-83
2023/11/14 11:42:29;;;;;;;;;;;;;;;;;;;;;
2023/11/14 11:45:40;;;;;;;;;2.00;2.00;;;;;24.58;50.89;101099.88;146615;570;47014;-77
2023/11/14 11:48:48;;;;;;;;;0.33;0.33;;;;;24.53;50.62;101085.75;146621;604;47010;-75
2023/11/14 11:51:52;;;;;;;;;2.00;2.00;;;;;24.55;49.63;101080.41;146616;574;46029;-77
2023/11/14 11:54:55;;;;;;;;;2.67;2.67;;;;;24.54;47.52;101081.31;146623;593;46010;-79
2023/11/14 11:57:48;;;;;;;;;3.00;2.00;;;;;24.54;48.26;101073.34;146618;635;46014;-77
2023/11/14 12:00:54;;;;;;;;;1.67;1.00;;;;;24.53;48.85;101079.56;146607;622;46021;-76
2023/11/14 12:04:00;;;;;;;;;2.00;2.00;;;;;23.05;50.60;100834.88;146616;575;47915;-76
2023/11/14 12:07:00;;;;;;;;;1.33;1.33;;;;;24.48;49.65;101086.62;146623;588;47010;-80
2023/11/14 12:10:03;;;;;;;;;6.67;3.67;;;;;24.52;46.05;101083.97;146617;584;46016;-76
2023/11/14 12:13:02;;;;;;;;;3.00;2.00;;;;;24.60;47.32;101081.31;146618;596;47020;-75
2023/11/14 12:16:00;;;;;;;;;2.00;2.00;;;;;24.60;45.63;101082.19;146618;641;46016;-72
2023/11/14 12:18:57;;;;;;;;;5.00;3.00;;;;;24.60;47.62;101081.31;146617;611;46020;-77
2023/11/14 12:22:13;;;;;;;;;2.00;2.00;;;;;24.63;48.84;101070.69;146616;566;48015;-79
2023/11/14 12:25:05;;;;;;;;;5.67;3.33;;;;;24.65;46.89;101061.00;146623;596;46020;-73
2023/11/14 12:28:06;;;;;;;;;4.33;2.33;;;;;24.59;48.28;101074.25;146618;583;47012;-72
2023/11/14 12:31:23;;;;;;;;;2.00;2.00;;;;;24.42;48.07;101058.34;146619;625;47010;-77
2023/11/14 12:34:46;;;;;;;;;5.00;3.00;;;;;24.35;49.89;101062.72;146618;664;47012;-75
2023/11/14 12:38:04;;;;;;;;;5.00;4.00;;;;;24.38;46.80;101065.38;146622;579;47011;-77
2023/11/14 12:41:28;;;;;;;;;5.00;4.33;;;;;24.44;50.63;101064.53;146618;587;46911;-76
2023/11/14 12:44:24;;;;;;;;;7.00;6.00;;;;;24.63;47.59;101058.31;146620;608;46021;-76
2023/11/14 12:47:39;;;;;;;;;7.33;6.67;;;;;24.96;48.17;101055.62;146615;590;46913;-72
2023/11/14 12:51:16;;;;;;;;;;;;;;;;;;;;;
2023/11/14 12:54:15;;;;;;;;;7.00;7.00;;;;;25.82;45.33;101029.59;146617;574;46016;-79
2023/11/14 12:57:46;;;;;;;;;8.00;7.00;;;;;24.88;47.81;100793.91;146621;580;46020;-80
2023/11/14 13:00:44;;;;;;;;;8.33;6.33;;;;;26.55;43.63;101021.97;146617;588;46016;-82
2023/11/14 13:03:39;;;;;;;;;7.00;6.00;;;;;26.74;43.88;101020.88;146613;590;47010;-74
2023/11/14 13:06:49;;;;;;;;;8.67;7.67;;;;;26.90;44.37;101014.50;146610;601;47016;-76
2023/11/14 13:09:49;;;;;;;;;7.67;7.33;;;;;26.97;42.96;101012.63;146622;677;46010;-70
2023/11/14 13:12:56;;;;;;;;;7.33;6.00;;;;;26.97;46.34;101004.66;146616;565;46016;-78
2023/11/14 13:16:03;;;;;;;;;8.00;6.33;;;;;27.07;44.68;101008.06;146617;597;49010;-81
2023/11/14 13:19:01;;;;;;;;;7.00;6.67;;;;;27.26;44.46;101012.31;146614;573;47016;-76
2023/11/14 13:22:01;;;;;;;;;5.00;5.00;;;;;27.38;42.98;101004.19;146620;593;47010;-79
2023/11/14 13:24:59;;;;;;;;;5.33;5.00;;;;;27.36;44.06;101000.66;146615;645;46016;-75
2023/11/14 13:27:56;;;;;;;;;5.67;4.00;;;;;27.22;43.85;101009.72;146623;605;46011;-76
2023/11/14 13:30:57;;;;;;;;;10.67;7.67;;;;;26.96;44.08;101010.88;146617;608;46016;-77
2023/11/14 13:33:52;;;;;;;;;118.00;53.00;;;;;26.73;44.48;101005.84;146617;565;46020;-76
2023/11/14 13:37:00;;;;;;;;;7.00;5.67;;;;;26.49;45.09;101001.66;146609;625;46017;-75
2023/11/14 13:40:05;;;;;;;;;7.00;6.00;;;;;26.25;44.25;101006.25;146621;564;46010;-78
2023/11/14 13:43:05;;;;;;;;;4.00;3.00;;;;;25.92;45.70;101017.13;146616;605;47012;-77
2023/11/14 13:46:08;;;;;;;;;2.33;1.33;;;;;25.61;46.85;101011.13;146621;609;46020;-78
2023/11/14 13:49:24;;;;;;;;;3.33;3.33;;;;;25.30;49.38;101013.97;146615;662;47016;-78
2023/11/14 13:52:22;;;;;;;;;2.33;2.33;;;;;24.97;47.28;101013.16;146624;587;46020;-78
2023/11/14 13:55:18;;;;;;;;;3.67;3.00;;;;;24.60;48.72;101009.72;146619;598;46012;-77
2023/11/14 13:58:32;;;;;;;;;3.67;3.00;;;;;24.37;50.30;101005.31;146623;625;46021;-76
2023/11/14 14:01:29;;;;;;;;;2.33;1.33;;;;;24.19;50.36;101010.63;146615;571;46913;-76
2023/11/14 14:04:25;;;;;;;;;2.00;2.00;;;;;24.04;50.36;101013.25;146614;650;47010;-74
2023/11/14 14:07:22;;;;;;;;;3.33;2.67;;;;;23.85;50.11;101023.84;146617;608;47033;-77
2023/11/14 14:10:33;;;;;;;;;5.00;5.00;;;;;23.68;50.97;101020.25;146621;563;46010;-77
2023/11/14 14:13:27;;;;;;;;;3.33;3.00;;;;;23.54;52.04;101019.31;146615;572;47916;-77
2023/11/14 14:16:28;;;;;;;;;3.67;2.67;;;;;23.41;52.88;101011.34;146621;570;47010;-78
2023/11/14 14:19:30;;;;;;;;;2.00;2.00;;;;;23.25;49.92;101010.41;146616;588;47012;-78
2023/11/14 14:22:28;;;;;;;;;6.00;5.67;;;;;23.01;50.99;101002.38;146620;674;47014;-78
2023/11/14 14:25:25;;;;;;;;;4.00;2.67;;;;;22.78;52.16;101011.03;146617;630;47012;-78
2023/11/14 14:28:43;;;;;;;;;4.00;4.00;;;;;22.57;52.58;101005.63;146614;588;46914;-74
2023/11/14 14:31:42;;;;;;;;;4.00;3.00;;;;;22.38;53.74;101009.91;146615;630;46915;-78
2023/11/14 14:34:58;;;;;;;;;6.67;4.33;;;;;22.23;55.23;101028.25;146620;655;46011;-79
2023/11/14 14:37:51;;;;;;;;;5.67;5.00;;;;;22.08;56.34;101015.78;146615;633;46016;-76